Time;durP1;ratioP1;P1;durP2;ratioP2;P2;SDS_P1;SDS_P2;PMS_P1;PMS_P2;Temp;Humidity;BMP_temperature;BMP_pressure;BME280_temperature;BME280_humidity;BME280_pressure;Samples;Min_cycle;Max_cycle;Signal;HPM_P1;HPM_P2
2022/04/22 00:02:01;;;;;;;6.30;4.20;;;;;;;8.45;72.31;100529.94;4938876;29;20513;-77
2022/04/22 00:04:33;;;;;;;6.38;4.35;;;;;;;8.43;72.59;100508.19;4939240;29;20066;-77
2022/04/22 00:07:01;;;;;;;5.63;4.32;;;;;;;8.32;72.51;100534.81;4938672;29;20097;-77
2022/04/22 00:09:28;;;;;;;6.60;4.75;;;;;;;8.23;73.28;100528.53;4932608;29;20055;-78
2022/04/22 00:11:55;;;;;;;6.78;4.40;;;;;;;8.21;73.34;100531.09;4920186;29;20060;-78
2022/04/22 00:14:22;;;;;;;7.90;4.90;;;;;;;7.85;73.42;100476.47;4919487;29;20115;-79
2022/04/22 00:16:50;;;;;;;7.65;4.60;;;;;;;8.20;73.29;100535.44;4919672;29;20087;-77
2022/04/22 00:19:18;;;;;;;6.07;4.70;;;;;;;8.09;73.43;100526.50;4920011;29;20067;-75
2022/04/22 00:21:47;;;;;;;6.10;4.07;;;;;;;8.10;73.71;100546.47;4919679;29;20063;-78
2022/04/22 00:24:16;;;;;;;7.30;4.35;;;;;;;8.14;73.48;100542.22;4919386;29;20060;-77
2022/04/22 00:26:43;;;;;;;6.78;4.88;;;;;;;8.24;73.39;100532.88;4919183;29;20395;-77
2022/04/22 00:29:11;;;;;;;7.43;5.20;;;;;;;8.32;72.95;100527.00;4919155;29;20064;-76
2022/04/22 00:31:39;;;;;;;6.78;4.55;;;;;;;8.38;72.92;100528.88;4919229;29;20060;-78
2022/04/22 00:34:06;;;;;;;6.20;4.82;;;;;;;8.32;72.82;100540.03;4918916;29;20103;-77
2022/04/22 00:36:33;;;;;;;7.65;4.75;;;;;;;8.26;72.93;100523.38;4918861;29;20098;-77
2022/04/22 00:39:01;;;;;;;7.53;4.85;;;;;;;8.24;73.17;100530.28;4918969;29;20052;-77
2022/04/22 00:41:29;;;;;;;7.13;4.80;;;;;;;8.24;73.03;100520.78;4918887;29;20067;-78
2022/04/22 00:43:56;;;;;;;9.02;5.10;;;;;;;8.24;73.62;100527.69;4918820;29;20156;-78
2022/04/22 00:46:24;;;;;;;7.57;5.07;;;;;;;8.18;73.31;100541.44;4919903;29;20067;-77
2022/04/22 00:48:51;;;;;;;8.20;4.90;;;;;;;8.17;73.41;100537.97;4919139;29;20056;-77
2022/04/22 00:51:21;;;;;;;6.68;4.63;;;;;;;8.16;73.64;100537.94;4918885;29;20104;-77
2022/04/22 00:53:50;;;;;;;7.47;4.88;;;;;;;8.13;74.22;100530.03;4918918;29;20056;-77
2022/04/22 00:56:18;;;;;;;7.20;4.93;;;;;;;8.05;73.85;100518.59;4918927;29;20059;-77
2022/04/22 00:58:47;;;;;;;7.28;4.65;;;;;;;8.09;73.83;100523.91;4919011;29;20352;-77
2022/04/22 01:01:14;;;;;;;9.55;5.40;;;;;;;8.08;74.05;100529.06;4919051;29;20147;-77
2022/04/22 01:09:47;;;;;;;6.90;5.18;;;;;;;8.02;74.13;100528.91;4919058;29;20123;-77
2022/04/22 01:12:06;;;;;;;7.13;4.55;;;;;;;7.99;74.32;100525.38;4918426;29;20458;-77
2022/04/22 01:14:33;;;;;;;7.63;4.68;;;;;;;7.92;74.72;100510.47;4917644;29;20075;-77
2022/04/22 01:17:01;;;;;;;6.53;4.57;;;;;;;7.89;74.44;100525.13;4918554;29;20112;-77
2022/04/22 01:19:28;;;;;;;5.30;4.00;;;;;;;7.71;74.66;100492.59;4918638;29;20059;-78
2022/04/22 01:21:55;;;;;;;6.60;4.30;;;;;;;7.89;75.15;100509.50;4918612;29;20248;-77
2022/04/22 01:24:22;;;;;;;6.75;4.35;;;;;;;7.97;74.64;100513.19;4918627;29;20107;-77
2022/04/22 01:26:54;;;;;;;9.85;4.88;;;;;;;7.98;74.61;100515.84;4918224;29;20435;-78
2022/04/22 01:29:23;;;;;;;6.05;4.40;;;;;;;7.88;74.76;100512.97;4918772;29;20060;-79
2022/04/22 01:31:50;;;;;;;8.32;5.03;;;;;;;7.91;75.06;100513.03;4918561;29;20059;-77
2022/04/22 01:34:19;;;;;;;8.52;4.60;;;;;;;7.84;75.01;100500.72;4918433;29;20557;-77
2022/04/22 01:36:48;;;;;;;8.32;5.35;;;;;;;7.78;74.95;100501.44;4918325;29;20052;-78
2022/04/22 01:39:16;;;;;;;8.15;4.70;;;;;;;7.77;75.52;100505.78;4918364;29;20395;-76
2022/04/22 01:41:44;;;;;;;8.32;5.07;;;;;;;7.82;75.03;100479.88;4918140;29;20138;-78
2022/04/22 01:44:13;;;;;;;8.63;4.72;;;;;;;7.87;75.19;100504.28;4917976;29;20056;-78
2022/04/22 01:46:41;;;;;;;7.90;5.50;;;;;;;7.85;75.39;100487.78;4917860;29;20060;-77
2022/04/22 01:49:10;;;;;;;8.63;4.63;;;;;;;7.86;75.46;100510.31;4918300;29;20060;-76
2022/04/22 01:51:38;;;;;;;9.93;4.63;;;;;;;7.80;75.29;100507.56;4918010;29;20063;-77
2022/04/22 01:54:06;;;;;;;8.70;4.97;;;;;;;7.73;75.54;100506.53;4917973;29;20146;-77
2022/04/22 01:56:34;;;;;;;7.88;5.35;;;;;;;7.82;76.00;100502.41;4917902;29;20064;-77
2022/04/22 01:59:03;;;;;;;7.15;5.20;;;;;;;7.97;75.67;100521.84;4926510;29;20056;-77
2022/04/22 02:01:32;;;;;;;9.00;5.37;;;;;;;8.02;75.33;100505.47;4935072;29;20063;-77
2022/04/22 02:04:01;;;;;;;8.05;5.53;;;;;;;7.98;75.23;100504.56;4917330;29;20115;-77
2022/04/22 02:06:29;;;;;;;7.05;5.18;;;;;;;7.93;75.43;100517.41;4917992;29;20059;-78
2022/04/22 02:08:57;;;;;;;8.95;5.43;;;;;;;7.91;75.80;100524.31;4925437;29;20059;-78
2022/04/22 02:11:27;;;;;;;6.53;5.03;;;;;;;7.92;75.56;100517.41;4935442;29;20087;-76
2022/04/22 02:13:55;;;;;;;8.40;5.38;;;;;;;7.93;75.82;100521.75;4935807;29;20059;-77
2022/04/22 02:16:22;;;;;;;7.03;5.05;;;;;;;8.04;75.63;100517.69;4936282;29;20063;-78
2022/04/22 02:18:51;;;;;;;9.18;5.50;;;;;;;8.12;74.98;100494.47;4936192;29;20138;-78
2022/04/22 02:21:21;;;;;;;7.93;5.28;;;;;;;8.19;75.02;100518.06;4935073;29;20063;-77
2022/04/22 02:23:48;;;;;;;8.80;5.18;;;;;;;8.10;75.00;100512.63;4936310;29;20058;-77
2022/04/22 02:26:15;;;;;;;6.85;4.65;;;;;;;8.10;75.17;100509.16;4936004;29;20536;-78
2022/04/22 02:28:43;;;;;;;8.70;4.95;;;;;;;8.11;75.40;100511.81;4936114;29;20059;-77
2022/04/22 02:31:12;;;;;;;7.68;5.20;;;;;;;8.18;74.99;100512.81;4936138;29;20055;-77
2022/04/22 02:33:42;;;;;;;7.25;5.15;;;;;;;8.06;75.16;100505.59;4935951;29;20600;-77
2022/04/22 02:36:11;;;;;;;7.03;4.82;;;;;;;8.14;75.13;100511.00;4935520;29;20429;-77
2022/04/22 02:38:39;;;;;;;8.52;5.10;;;;;;;8.19;74.97;100510.25;4936921;29;20094;-79
2022/04/22 02:46:43;;;;;;;9.18;5.32;;;;;;;8.24;75.17;100505.16;4935659;29;20055;-77
2022/04/22 02:49:11;;;;;;;7.90;5.10;;;;;;;8.31;75.20;100509.66;4935662;29;20056;-77
2022/04/22 02:51:38;;;;;;;8.40;5.20;;;;;;;8.41;74.65;100518.59;4935527;29;20058;-77
2022/04/22 02:54:07;;;;;;;9.18;5.07;;;;;;;8.40;74.64;100517.69;4935429;29;20055;-78
2022/04/22 02:56:35;;;;;;;8.15;4.97;;;;;;;8.34;74.79;100516.66;4935468;29;20589;-78
2022/04/22 02:59:03;;;;;;;10.52;5.28;;;;;;;8.21;74.29;100473.84;4935482;29;20509;-78
2022/04/22 03:01:36;;;;;;;7.97;5.40;;;;;;;8.39;74.43;100508.09;4935497;29;20051;-76
2022/04/22 03:04:05;;;;;;;9.07;5.60;;;;;;;8.36;74.55;100515.81;4935558;29;20059;-78
2022/04/22 03:06:31;;;;;;;9.10;5.35;;;;;;;8.30;74.53;100509.59;4934375;29;20082;-76
2022/04/22 03:09:00;;;;;;;6.70;5.22;;;;;;;8.33;74.68;100520.97;4935013;29;20482;-77
2022/04/22 03:11:29;;;;;;;9.07;5.40;;;;;;;8.33;74.12;100507.09;4935465;29;20067;-77
2022/04/22 03:13:56;;;;;;;8.10;5.05;;;;;;;8.31;74.34;100514.84;4935187;29;20318;-78
2022/04/22 03:16:25;;;;;;;6.65;4.93;;;;;;;8.19;74.18;100488.53;4935569;29;20528;-78
2022/04/22 03:18:55;;;;;;;9.18;5.43;;;;;;;8.40;73.91;100522.00;4934564;29;20051;-79
2022/04/22 03:21:24;;;;;;;8.85;5.35;;;;;;;8.49;73.45;100530.03;4935888;29;20055;-77
2022/04/22 03:23:52;;;;;;;9.80;4.82;;;;;;;8.59;72.92;100516.38;4935265;29;20138;-76
2022/04/22 03:26:20;;;;;;;7.40;4.72;;;;;;;8.50;73.27;100516.19;4933579;29;20572;-77
2022/04/22 03:28:57;;;;;;;8.73;4.95;;;;;;;8.39;73.56;100534.16;4933721;29;20201;-77
2022/04/22 03:31:25;;;;;;;6.13;4.53;;;;;;;8.26;74.01;100526.91;4923610;29;20056;-79
2022/04/22 03:33:52;;;;;;;6.60;4.35;;;;;;;8.24;74.19;100530.28;4929834;29;20071;-78
2022/04/22 03:36:22;;;;;;;7.10;4.57;;;;;;;8.33;73.79;100538.34;4915906;29;20063;-78
2022/04/22 03:38:51;;;;;;;9.48;4.80;;;;;;;8.27;73.63;100522.56;4921501;29;20051;-77
2022/04/22 03:41:19;;;;;;;6.38;4.22;;;;;;;8.27;73.71;100536.44;4934902;29;20063;-78
2022/04/22 03:43:47;;;;;;;5.78;4.57;;;;;;;8.21;73.52;100531.09;4934944;29;20118;-79
2022/04/22 03:46:16;;;;;;;7.90;4.70;;;;;;;8.10;74.15;100514.34;4935473;29;20429;-77
2022/04/22 03:48:44;;;;;;;7.22;4.88;;;;;;;8.23;73.49;100523.34;4934998;29;20059;-77
2022/04/22 03:51:13;;;;;;;6.73;4.77;;;;;;;8.12;73.40;100513.53;4933907;29;20155;-77
2022/04/22 03:53:41;;;;;;;7.43;4.68;;;;;;;8.27;73.34;100528.66;4931623;29;20355;-78
2022/04/22 03:58:57;;;;;;;7.57;4.90;;;;;;;8.27;73.26;100517.34;4923126;29;20417;-77
2022/04/22 04:01:26;;;;;;;7.47;4.07;;;;;;;8.25;73.29;100519.91;4920871;29;20569;-77
2022/04/22 04:03:53;;;;;;;6.13;4.03;;;;;;;8.27;72.94;100526.03;4924699;29;20139;-78
2022/04/22 04:06:23;;;;;;;7.13;4.35;;;;;;;8.29;72.68;100513.94;4924569;29;20100;-81
2022/04/22 04:17:14;;;;;;;9.35;4.35;;;;;;;8.23;72.56;100490.38;4924779;29;20098;-80
2022/04/22 04:25:14;;;;;;;5.78;4.20;;;;;;;8.48;71.65;100506.59;4935150;29;20059;-76
2022/04/22 04:28:15;;;;;;;5.60;4.13;;;;;;;8.59;71.66;100508.56;4937284;29;20055;-78
2022/04/22 04:30:44;;;;;;;6.97;4.32;;;;;;;8.35;71.08;100450.75;4938350;29;20059;-79
2022/04/22 04:33:11;;;;;;;5.90;4.32;;;;;;;8.71;70.70;100504.47;4931396;29;20059;-77
2022/04/22 04:35:38;;;;;;;6.13;4.50;;;;;;;8.77;70.60;100502.00;4919840;29;20116;-78
2022/04/22 04:38:08;;;;;;;8.52;4.32;;;;;;;8.80;70.62;100497.72;4919428;29;20064;-78
2022/04/22 04:40:36;;;;;;;5.30;4.10;;;;;;;8.94;70.27;100510.16;4919617;29;20060;-78
2022/04/22 04:43:05;;;;;;;6.57;4.45;;;;;;;9.02;69.59;100501.66;4919683;29;20107;-78
2022/04/22 04:45:33;;;;;;;7.72;4.60;;;;;;;9.02;69.98;100511.19;4919628;29;20518;-80
2022/04/22 04:48:03;;;;;;;6.88;4.60;;;;;;;8.99;69.56;100487.66;4919558;29;20056;-80
2022/04/22 04:50:32;;;;;;;6.43;4.10;;;;;;;9.19;69.35;100501.09;4919630;29;20058;-79
2022/04/22 04:52:59;;;;;;;6.55;4.50;;;;;;;9.03;69.37;100460.81;4919562;29;20147;-80
2022/04/22 04:55:28;;;;;;;7.03;4.72;;;;;;;9.34;68.70;100506.59;4919026;29;20508;-79
2022/04/22 04:57:56;;;;;;;7.30;4.68;;;;;;;9.35;68.34;100490.09;4917966;29;20383;-78
2022/04/22 05:00:24;;;;;;;8.63;4.57;;;;;;;9.42;68.04;100511.94;4919009;29;20047;-77
2022/04/22 05:02:55;;;;;;;9.25;5.25;;;;;;;9.39;68.19;100509.28;4918882;29;20510;-79
2022/04/22 05:05:29;;;;;;;6.97;4.65;;;;;;;9.34;68.62;100504.00;4933754;29;20088;-79
2022/04/22 05:08:00;;;;;;;9.70;4.80;;;;;;;9.21;68.26;100470.72;4917380;29;20508;-78
2022/04/22 05:10:30;;;;;;;7.38;4.63;;;;;;;9.66;67.79;100508.00;4919248;29;20060;-77
2022/04/22 05:13:01;;;;;;;8.23;4.53;;;;;;;9.74;67.16;100509.03;4917761;29;20059;-77
2022/04/22 05:15:32;;;;;;;7.22;4.30;;;;;;;9.27;66.94;100434.34;4918038;29;20150;-78
2022/04/22 05:18:02;;;;;;;8.48;4.88;;;;;;;9.92;66.61;100517.19;4918682;29;20112;-78
2022/04/22 05:20:35;;;;;;;8.63;4.30;;;;;;;9.90;66.58;100500.63;4918850;29;20508;-78
2022/04/22 05:23:03;;;;;;;8.18;4.70;;;;;;;10.01;66.22;100503.41;4918955;29;20060;-79
2022/04/22 05:25:31;;;;;;;6.95;4.13;;;;;;;9.94;66.31;100492.00;4917940;29;20502;-78
2022/04/22 05:28:00;;;;;;;6.20;3.88;;;;;;;9.99;66.01;100500.75;4921298;29;20088;-78
2022/04/22 05:33:20;;;;;;;5.35;3.38;;;;;;;10.20;65.24;100501.97;4917696;29;20534;-78
2022/04/22 05:35:47;;;;;;;6.43;4.10;;;;;;;10.34;64.85;100474.31;4918724;29;20150;-78
2022/04/22 05:38:15;;;;;;;6.50;3.38;;;;;;;10.82;63.85;100498.50;4916799;29;20047;-79
2022/04/22 05:40:46;;;;;;;5.20;3.87;;;;;;;10.98;63.42;100483.88;4918420;29;20413;-81
2022/04/22 05:43:14;;;;;;;6.30;3.60;;;;;;;10.87;62.91;100486.34;4932946;29;20052;-78
2022/04/22 05:45:41;;;;;;;4.68;3.40;;;;;;;10.91;63.29;100493.38;4918091;29;20060;-78
2022/04/22 05:48:10;;;;;;;6.18;3.58;;;;;;;11.01;62.85;100499.56;4918194;29;20522;-78
2022/04/22 05:50:39;;;;;;;6.25;3.38;;;;;;;11.00;62.99;100482.16;4918109;29;20064;-79
2022/04/22 05:53:06;;;;;;;5.53;3.42;;;;;;;11.17;62.73;100493.66;4917805;29;20056;-77
2022/04/22 05:55:35;;;;;;;5.32;3.17;;;;;;;11.19;62.36;100491.94;4917917;29;20421;-78
2022/04/22 05:58:05;;;;;;;5.75;2.90;;;;;;;11.00;62.20;100474.31;4918602;29;20056;-77
2022/04/22 06:00:32;;;;;;;7.25;3.17;;;;;;;10.85;62.24;100465.41;4918267;29;20060;-80
2022/04/22 06:03:00;;;;;;;5.60;3.22;;;;;;;11.11;62.44;100505.78;4917814;29;20059;-79
2022/04/22 06:05:27;;;;;;;4.57;2.92;;;;;;;11.14;61.63;100457.03;4917322;29;20048;-77
2022/04/22 06:10:44;;;;;;;5.10;3.22;;;;;;;11.69;60.63;100490.69;4917524;29;20060;-78
2022/04/22 06:13:11;;;;;;;5.05;3.38;;;;;;;11.77;60.26;100499.50;4917607;29;20466;-79
2022/04/22 06:15:38;;;;;;;9.15;3.78;;;;;;;11.85;60.22;100489.97;4917361;29;20502;-79
2022/04/22 06:18:08;;;;;;;4.20;3.10;;;;;;;11.89;60.22;100496.13;4917260;29;20162;-80
2022/04/22 06:20:36;;;;;;;3.55;3.00;;;;;;;11.79;59.95;100489.91;4917556;29;20056;-78
2022/04/22 06:23:03;;;;;;;3.47;3.10;;;;;;;11.78;60.40;100495.13;4918214;29;20130;-79
2022/04/22 06:25:30;;;;;;;5.28;3.20;;;;;;;11.83;59.73;100498.63;4929864;29;20127;-78
2022/04/22 06:27:57;;;;;;;5.35;3.03;;;;;;;11.64;60.23;100495.00;4927813;29;20719;-78
2022/04/22 06:30:24;;;;;;;4.00;2.88;;;;;;;11.55;60.08;100477.50;4924439;29;20102;-80
2022/04/22 06:32:54;;;;;;;4.90;2.90;;;;;;;11.79;60.04;100497.75;4927094;29;20052;-77
2022/04/22 06:35:22;;;;;;;4.40;2.67;;;;;;;12.01;59.26;100488.34;4924343;29;20044;-78
2022/04/22 06:37:52;;;;;;;5.50;2.97;;;;;;;12.05;59.01;100489.28;4928568;29;20075;-79
2022/04/22 06:45:54;;;;;;;4.05;3.00;;;;;;;12.23;58.38;100497.25;4924608;29;20055;-78
2022/04/22 06:48:30;;;;;;;3.42;2.53;;;;;;;12.17;58.08;100472.75;4916128;29;20052;-77
2022/04/22 06:51:20;;;;;;;3.92;2.45;;;;;;;12.19;58.33;100484.13;4916676;29;20059;-78
2022/04/22 06:53:50;;;;;;;4.65;2.80;;;;;;;12.31;58.07;100467.63;4917134;29;20060;-78
2022/04/22 06:56:23;;;;;;;6.10;3.10;;;;;;;12.41;56.95;100456.28;4916187;29;20529;-78
2022/04/22 06:58:52;;;;;;;5.22;3.05;;;;;;;12.65;56.65;100466.06;4917316;29;20288;-80
2022/04/22 07:01:22;;;;;;;3.85;2.60;;;;;;;12.92;56.41;100483.63;4917086;29;20095;-79
2022/04/22 07:04:10;;;;;;;13.70;7.35;;;;;;;13.29;55.20;100478.50;4917080;29;20060;-76
2022/04/22 07:06:39;;;;;;;4.57;2.92;;;;;;;13.55;54.79;100472.44;4916969;29;20067;-76
2022/04/22 07:09:08;;;;;;;8.50;3.33;;;;;;;13.67;54.37;100469.81;4916616;29;20056;-79
2022/04/22 07:11:40;;;;;;;4.55;2.95;;;;;;;13.65;54.16;100480.31;4915704;29;20060;-78
2022/04/22 07:14:10;;;;;;;4.93;3.20;;;;;;;13.65;54.08;100466.31;4917122;29;20064;-77
2022/04/22 07:16:44;;;;;;;5.25;3.08;;;;;;;13.22;54.35;100440.84;4916698;29;20056;-79
2022/04/22 07:19:13;;;;;;;6.82;3.13;;;;;;;13.29;55.07;100468.91;4916696;29;20573;-77
2022/04/22 07:21:40;;;;;;;6.63;3.45;;;;;;;13.27;55.02;100475.88;4916745;29;20078;-77
2022/04/22 07:24:08;;;;;;;9.88;3.50;;;;;;;13.22;55.09;100467.09;4916657;29;20083;-77
2022/04/22 07:26:40;;;;;;;5.65;3.92;;;;;;;13.03;55.06;100450.44;4915443;29;20455;-80
2022/04/22 07:29:09;;;;;;;12.18;3.70;;;;;;;13.15;55.32;100456.59;4919607;29;20082;-78
2022/04/22 07:31:38;;;;;;;4.95;3.25;;;;;;;13.38;54.45;100448.78;4915555;29;20056;-79
2022/04/22 07:34:08;;;;;;;7.50;3.97;;;;;;;13.65;53.89;100461.94;4916595;29;20063;-77
2022/04/22 07:36:36;;;;;;;;;;;;;;;13.46;55.42;100457.53;4916830;29;20056;-79
2022/04/22 07:39:06;;;;;;;5.20;3.20;;;;;;;13.61;54.24;100454.94;4916922;29;19927;-77
2022/04/22 07:41:39;;;;;;;7.43;3.50;;;;;;;13.67;53.86;100447.06;4916402;29;20119;-77
2022/04/22 07:46:59;;;;;;;7.30;2.88;;;;;;;13.40;53.78;100455.81;4916494;29;20530;-79
2022/04/22 07:49:29;;;;;;;7.05;3.00;;;;;;;13.37;54.18;100454.91;4916822;29;20572;-81
2022/04/22 07:51:56;;;;;;;5.03;3.10;;;;;;;13.51;54.15;100463.69;4917683;29;20060;-82
2022/04/22 07:54:26;;;;;;;6.72;3.00;;;;;;;13.30;54.03;100439.16;4915180;29;20399;-82
2022/04/22 07:56:53;;;;;;;5.68;2.92;;;;;;;13.45;53.98;100456.69;4915054;29;20059;-78
2022/04/22 07:59:32;;;;;;;4.90;2.95;;;;;;;13.26;53.33;100432.13;4916056;29;20192;-82
2022/04/22 08:02:02;;;;;;;5.20;2.95;;;;;;;13.26;53.52;100444.38;4915725;29;20143;-81
2022/04/22 08:04:30;;;;;;;6.78;2.83;;;;;;;13.01;54.46;100444.31;4919857;29;20063;-80
2022/04/22 08:06:58;;;;;;;4.82;2.75;;;;;;;12.89;54.96;100446.91;4919739;29;20525;-79
2022/04/22 08:09:51;;;;;;;2.58;2.33;;;;;;;12.46;55.46;100450.22;4919776;29;20052;-78
2022/04/22 08:12:25;;;;;;;6.93;2.58;;;;;;;12.21;56.14;100446.59;4919347;29;20071;-77
2022/04/22 08:14:58;;;;;;;4.60;2.80;;;;;;;12.17;56.26;100436.94;4919385;29;20071;-79
2022/04/22 08:17:26;;;;;;;4.57;2.67;;;;;;;12.01;56.58;100438.63;4919713;29;20545;-78
2022/04/22 08:19:55;;;;;;;3.92;2.70;;;;;;;11.56;57.20;100385.03;4919936;29;20059;-80
2022/04/22 08:22:23;;;;;;;4.70;2.60;;;;;;;11.84;57.07;100424.50;4923733;29;20060;-79
2022/04/22 08:24:51;;;;;;;3.88;2.70;;;;;;;11.78;57.47;100442.78;4926114;29;20066;-79
2022/04/22 08:27:19;;;;;;;3.00;2.55;;;;;;;11.76;57.55;100432.28;4919273;29;20485;-80
2022/04/22 08:29:48;;;;;;;4.80;2.47;;;;;;;11.72;57.56;100427.88;4888172;29;20056;-78
2022/04/22 08:32:16;;;;;;;4.30;2.45;;;;;;;11.63;57.61;100423.47;4919512;29;20059;-80
2022/04/22 08:34:44;;;;;;;4.45;2.80;;;;;;;11.81;57.44;100442.81;4918516;29;20490;-80
2022/04/22 08:37:13;;;;;;;4.78;2.60;;;;;;;11.96;56.55;100421.09;4919784;29;20056;-79
2022/04/22 08:39:41;;;;;;;3.03;2.33;;;;;;;12.21;56.46;100446.59;4919496;29;20056;-79
2022/04/22 08:42:12;;;;;;;7.47;2.90;;;;;;;12.34;56.25;100434.44;4919365;29;20112;-80
2022/04/22 08:45:00;;;;;;;5.43;3.00;;;;;;;12.64;55.46;100420.59;4919519;29;20533;-80
2022/04/22 08:50:22;;;;;;;5.63;2.83;;;;;;;14.40;51.51;100410.16;4919448;29;20052;-79
2022/04/22 08:52:57;;;;;;;5.40;2.92;;;;;;;14.72;50.33;100426.72;4919045;29;20063;-81
2022/04/22 08:55:25;;;;;;;4.75;2.70;;;;;;;14.72;49.90;100412.69;4919154;29;20056;-77
2022/04/22 08:57:56;;;;;;;5.15;2.70;;;;;;;14.97;49.20;100415.19;4922439;29;20593;-78
2022/04/22 09:00:26;;;;;;;4.40;2.65;;;;;;;14.93;49.27;100412.59;4919087;29;20056;-77
2022/04/22 09:02:56;;;;;;;3.15;2.72;;;;;;;14.86;48.95;100395.09;4919226;29;20052;-77
2022/04/22 09:05:27;;;;;;;2.88;2.60;;;;;;;15.04;48.71;100406.38;4918991;29;20056;-79
2022/04/22 09:08:00;;;;;;;3.28;2.33;;;;;;;14.50;49.03;100359.31;4926161;29;20059;-79
2022/04/22 09:10:27;;;;;;;3.83;2.67;;;;;;;14.65;48.84;100371.53;4927762;29;20112;-79
2022/04/22 09:12:56;;;;;;;3.05;2.40;;;;;;;14.36;49.27;100369.00;4918037;29;20060;-79
2022/04/22 09:15:28;;;;;;;5.18;2.75;;;;;;;13.97;50.74;100391.91;4917721;29;20467;-78
2022/04/22 09:18:00;;;;;;;6.03;2.50;;;;;;;13.69;51.46;100389.31;4918506;29;20052;-78
2022/04/22 09:20:31;;;;;;;6.15;2.60;;;;;;;13.78;51.42;100397.16;4917791;29;20059;-77
2022/04/22 09:22:58;;;;;;;5.80;3.28;;;;;;;13.85;51.33;100398.94;4919274;29;20100;-80
2022/04/22 09:25:26;;;;;;;3.40;2.80;;;;;;;13.62;51.63;100382.31;4927093;29;20056;-80
2022/04/22 09:28:10;;;;;;;4.63;2.65;;;;;;;13.81;51.43;100388.41;4922187;29;20086;-77
2022/04/22 09:30:42;;;;;;;4.35;2.60;;;;;;;14.23;50.70;100402.34;4919273;29;20055;-77
2022/04/22 09:33:14;;;;;;;4.72;2.95;;;;;;;14.52;49.91;100395.22;4918253;29;20060;-77
2022/04/22 09:44:15;;;;;;;5.53;3.42;;;;;;;15.80;46.17;100375.97;4917488;29;20055;-77
2022/04/22 09:46:43;;;;;;;4.22;2.80;;;;;;;15.72;45.52;100369.88;4918236;29;20506;-78
2022/04/22 09:49:40;;;;;;;4.00;2.85;;;;;;;15.68;46.09;100366.41;4918478;29;20060;-77
2022/04/22 09:52:23;;;;;;;4.75;2.63;;;;;;;15.38;45.52;100322.78;4918676;29;20541;-79
2022/04/22 09:55:00;;;;;;;4.22;2.63;;;;;;;15.74;45.05;100369.00;4918008;29;20108;-76
2022/04/22 09:57:57;;;;;;;3.45;2.22;;;;;;;15.59;45.44;100360.34;4918054;29;20095;-76
2022/04/22 10:00:29;;;;;;;4.18;2.83;;;;;;;15.76;45.06;100363.72;4918015;29;20056;-79
2022/04/22 10:03:00;;;;;;;5.50;2.72;;;;;;;15.77;45.10;100353.16;4918563;29;20103;-77
2022/04/22 10:05:31;;;;;;;4.90;2.97;;;;;;;15.79;44.78;100370.69;4918239;29;20052;-76
2022/04/22 10:08:03;;;;;;;3.97;2.75;;;;;;;15.17;45.76;100379.09;4918284;29;20052;-79
2022/04/22 10:10:38;;;;;;;4.60;2.78;;;;;;;15.02;46.38;100364.28;4916911;29;20421;-78
2022/04/22 10:13:12;;;;;;;5.22;3.10;;;;;;;15.08;45.78;100321.28;4918285;29;20502;-78
2022/04/22 10:15:48;;;;;;;4.18;2.67;;;;;;;15.82;44.91;100365.41;4917449;29;20060;-77
2022/04/22 10:18:17;;;;;;;4.03;2.85;;;;;;;16.09;44.17;100365.13;4931939;29;20430;-77
2022/04/22 10:20:47;;;;;;;3.80;2.50;;;;;;;15.90;44.36;100363.59;4917529;29;20048;-77
2022/04/22 10:23:14;;;;;;;4.18;2.80;;;;;;;15.73;44.72;100353.22;4917645;29;20066;-79
2022/04/22 10:25:43;;;;;;;6.55;3.05;;;;;;;15.61;45.17;100353.28;4917723;29;20462;-78
2022/04/22 10:28:12;;;;;;;5.43;2.88;;;;;;;15.56;45.22;100359.47;4916079;29;20486;-77
2022/04/22 10:30:42;;;;;;;7.60;3.33;;;;;;;15.43;45.60;100355.22;4931122;29;20056;-76
2022/04/22 10:33:10;;;;;;;3.88;2.60;;;;;;;15.25;45.93;100363.25;4917481;29;20115;-77
2022/04/22 10:35:45;;;;;;;6.07;2.90;;;;;;;14.97;45.86;100352.94;4917055;29;20067;-77
2022/04/22 10:38:35;;;;;;;6.43;2.70;;;;;;;14.76;46.67;100353.94;4917507;29;20048;-78
2022/04/22 10:41:18;;;;;;;3.20;2.90;;;;;;;14.90;46.35;100356.47;4917594;29;20099;-78
2022/04/22 10:49:45;;;;;;;4.57;2.80;;;;;;;15.40;45.40;100356.97;4916956;29;20381;-79
2022/04/22 10:52:19;;;;;;;4.70;2.90;;;;;;;15.05;46.08;100351.09;4931969;29;20131;-78
2022/04/22 10:54:58;;;;;;;4.53;3.05;;;;;;;14.74;46.53;100353.09;4916956;29;20064;-77
2022/04/22 10:57:39;;;;;;;4.63;3.40;;;;;;;14.56;46.87;100319.00;4917243;29;20048;-78
2022/04/22 11:00:09;;;;;;;5.45;2.85;;;;;;;14.63;46.53;100349.66;4916990;29;20091;-79
2022/04/22 11:02:40;;;;;;;5.10;2.83;;;;;;;14.57;47.06;100360.19;4916764;29;20127;-78
2022/04/22 11:05:20;;;;;;;;;;;;;;;14.36;47.85;100340.97;4917104;29;20056;-77
2022/04/22 11:07:58;;;;;;;5.15;3.40;;;;;;;14.44;47.24;100340.94;4916564;29;19954;-77
2022/04/22 11:10:46;;;;;;;5.95;2.70;;;;;;;14.29;47.88;100339.25;4921636;29;20147;-78
2022/04/22 11:13:39;;;;;;;7.00;3.10;;;;;;;14.13;47.96;100344.56;4917145;29;20060;-76
2022/04/22 11:16:12;;;;;;;;;;;;;;;13.75;48.68;100335.94;4917296;29;20146;-78
2022/04/22 11:18:45;;;;;;;5.07;2.92;;;;;;;13.89;48.38;100344.63;4915397;29;19933;-79
2022/04/22 11:21:37;;;;;;;4.10;2.92;;;;;;;14.11;48.36;100327.94;4932233;29;20059;-78
2022/04/22 11:24:09;;;;;;;4.60;2.80;;;;;;;14.29;47.36;100337.50;4935898;29;20048;-79
2022/04/22 11:26:38;;;;;;;3.40;2.60;;;;;;;14.32;47.51;100312.94;4934595;29;20055;-77
2022/04/22 11:29:10;;;;;;;3.10;2.50;;;;;;;14.25;46.83;100295.47;4936185;29;20056;-79
2022/04/22 11:32:21;;;;;;;3.55;2.45;;;;;;;14.56;47.18;100333.00;4937352;29;20055;-77
2022/04/22 11:34:49;;;;;;;4.25;2.83;;;;;;;14.69;47.12;100326.81;4920099;29;20087;-79
2022/04/22 11:37:20;;;;;;;5.82;2.78;;;;;;;14.64;46.94;100306.69;4942721;29;20059;-78
2022/04/22 11:39:51;;;;;;;3.67;2.78;;;;;;;14.78;46.95;100319.72;4945071;29;20059;-77
2022/04/22 11:42:20;;;;;;;3.97;3.13;;;;;;;14.66;46.95;100326.81;4945153;29;20052;-79
2022/04/22 11:45:04;;;;;;;4.30;2.90;;;;;;;14.79;46.99;100317.09;4943007;29;20056;-76
2022/04/22 11:47:34;;;;;;;5.88;2.80;;;;;;;14.88;46.85;100292.50;4941042;29;20071;-77
2022/04/22 11:50:06;;;;;;;4.72;3.50;;;;;;;14.94;46.16;100317.00;4942141;29;20061;-78
2022/04/22 11:52:37;;;;;;;6.03;3.10;;;;;;;14.86;46.54;100316.19;4941780;29;20052;-80
2022/04/22 11:55:06;;;;;;;3.50;2.40;;;;;;;14.89;46.12;100303.00;4941921;29;20059;-77
2022/04/22 11:57:39;;;;;;;2.92;2.50;;;;;;;14.95;45.95;100291.59;4941736;29;20055;-78
2022/04/22 12:05:49;;;;;;;5.90;3.30;;;;;;;14.56;46.41;100290.94;4941303;29;20063;-78
2022/04/22 12:08:19;;;;;;;4.18;2.90;;;;;;;14.52;47.07;100286.59;4941490;29;20055;-76
2022/04/22 12:10:50;;;;;;;3.40;2.70;;;;;;;14.42;46.93;100288.38;4941187;29;20055;-78
2022/04/22 12:13:18;;;;;;;5.32;3.40;;;;;;;14.26;47.19;100290.22;4941185;29;20055;-78
2022/04/22 12:15:48;;;;;;;6.88;3.10;;;;;;;14.05;47.85;100267.53;4941076;29;20561;-81
2022/04/22 12:18:34;;;;;;;6.22;3.53;;;;;;;14.31;47.74;100290.19;4939942;29;20054;-80
2022/04/22 12:21:07;;;;;;;6.57;4.05;;;;;;;14.28;47.56;100269.16;4941104;29;20115;-78
2022/04/22 12:23:41;;;;;;;10.20;4.22;;;;;;;14.28;47.45;100256.94;4941011;29;20063;-78
2022/04/22 12:26:19;;;;;;;5.47;4.40;;;;;;;14.54;47.20;100274.31;4940377;29;20055;-81
2022/04/22 12:28:58;;;;;;;8.10;3.63;;;;;;;14.46;47.08;100268.22;4934817;29;20470;-82
2022/04/22 12:31:27;;;;;;;7.32;3.28;;;;;;;14.34;46.81;100256.88;4924196;29;20052;-77
2022/04/22 12:34:04;;;;;;;4.45;3.45;;;;;;;14.42;46.97;100271.75;4921988;29;20056;-77
2022/04/22 12:36:39;;;;;;;6.03;3.00;;;;;;;14.39;46.70;100250.72;4921777;29;20040;-78
2022/04/22 12:39:08;;;;;;;5.28;3.17;;;;;;;14.82;46.12;100266.22;4920302;29;20528;-80
2022/04/22 12:41:45;;;;;;;5.40;2.85;;;;;;;14.73;45.81;100254.91;4921815;29;20491;-78
2022/04/22 12:44:15;;;;;;;3.20;2.78;;;;;;;14.77;46.21;100265.41;4922498;29;20512;-79
2022/04/22 12:52:20;;;;;;;6.82;3.33;;;;;;;15.25;45.42;100257.97;4919304;29;20090;-78
2022/04/22 12:54:50;;;;;;;9.55;4.60;;;;;;;15.33;44.74;100246.47;4919429;29;20597;-79
2022/04/22 12:57:24;;;;;;;5.40;3.97;;;;;;;15.45;44.77;100256.03;4919149;29;20084;-78